Time;durP1;ratioP1;P1;durP2;ratioP2;P2;SDS_P1;SDS_P2;PMS_P1;PMS_P2;Temp;Humidity;BMP_temperature;BMP_pressure;BME280_temperature;BME280_humidity;BME280_pressure;Samples;Min_cycle;Max_cycle;Signal;HPM_P1;HPM_P2
2021/01/25 00:00:20;;;;;;;14.87;10.97;;;-1.20;96.30;;;;;;4956159;29;20217;-73
2021/01/25 00:02:46;;;;;;;14.67;10.33;;;-1.10;96.30;;;;;;4938385;29;20266;-74
2021/01/25 00:05:12;;;;;;;15.53;9.90;;;-1.10;96.30;;;;;;4953905;29;20597;-74
2021/01/25 00:07:38;;;;;;;14.97;11.20;;;-1.10;96.30;;;;;;4956827;29;20899;-73
2021/01/25 00:10:05;;;;;;;15.33;11.90;;;-1.10;96.30;;;;;;4939656;29;20446;-73
2021/01/25 00:12:31;;;;;;;13.37;9.60;;;-1.10;96.30;;;;;;4949813;29;20172;-74
2021/01/25 00:14:56;;;;;;;17.93;11.73;;;-1.10;96.30;;;;;;4937183;29;20419;-73
2021/01/25 00:17:22;;;;;;;15.37;10.73;;;;;;;;;;4996788;23;20493;-81
2021/01/25 00:19:48;;;;;;;23.13;13.30;;;-1.10;96.30;;;;;;4994116;28;20205;-81
2021/01/25 00:22:13;;;;;;;16.63;12.80;;;-1.10;96.30;;;;;;4997705;28;20177;-81
2021/01/25 00:24:39;;;;;;;16.50;11.33;;;-1.10;96.30;;;;;;5000025;28;20231;-81
2021/01/25 00:27:05;;;;;;;17.77;12.17;;;-1.10;96.30;;;;;;4999318;28;20533;-81
2021/01/25 00:29:31;;;;;;;17.47;13.20;;;-1.10;96.30;;;;;;5000291;28;20209;-81
2021/01/25 00:31:58;;;;;;;21.03;13.27;;;;;;;;;;5000224;28;20417;-81
2021/01/25 00:34:25;;;;;;;17.33;11.70;;;-1.10;96.30;;;;;;4998614;28;20637;-81
2021/01/25 00:36:51;;;;;;;15.77;11.10;;;;;;;;;;4982837;28;20449;-81
2021/01/25 00:39:17;;;;;;;15.87;11.20;;;-1.20;96.30;;;;;;4998714;28;20947;-81
2021/01/25 00:41:42;;;;;;;18.73;12.17;;;-1.10;96.30;;;;;;4999229;28;20768;-80
2021/01/25 00:44:08;;;;;;;17.03;11.50;;;;;;;;;;4999350;28;20416;-81
2021/01/25 00:46:34;;;;;;;17.07;11.93;;;;;;;;;;4997071;28;20256;-81
2021/01/25 00:49:00;;;;;;;15.30;11.20;;;-1.20;96.30;;;;;;4999089;28;20482;-81
2021/01/25 00:51:26;;;;;;;16.40;12.67;;;-1.20;96.30;;;;;;4981422;28;20413;-81
2021/01/25 00:53:51;;;;;;;20.30;12.13;;;-1.20;96.30;;;;;;4980234;28;20213;-81
2021/01/25 00:56:17;;;;;;;17.60;12.20;;;-1.20;96.30;;;;;;4998830;28;20637;-81
2021/01/25 00:58:42;;;;;;;16.57;11.20;;;-1.20;96.30;;;;;;4998253;28;20213;-81
2021/01/25 05:00:41;;;;;;;7.20;5.83;;;-2.10;96.30;;;;;;5877335;23;20563;-74
2021/01/25 05:03:06;;;;;;;8.73;6.00;;;-2.10;96.30;;;;;;4967586;28;20504;-74
2021/01/25 05:05:32;;;;;;;9.00;5.90;;;-2.10;96.30;;;;;;4993166;28;20417;-74
2021/01/25 05:07:57;;;;;;;6.83;5.57;;;-2.10;96.30;;;;;;4975716;28;20213;-74
2021/01/25 05:10:23;;;;;;;9.70;5.70;;;-2.00;96.30;;;;;;4977810;28;20188;-75
2021/01/25 05:12:50;;;;;;;7.53;5.23;;;-2.00;96.30;;;;;;4984710;28;20197;-75
2021/01/25 05:15:32;;;;;;;11.67;6.20;;;-2.10;96.30;;;;;;4974298;28;20182;-75
2021/01/25 05:18:02;;;;;;;5.90;4.80;;;-2.10;96.30;;;;;;4977268;28;20529;-75
2021/01/25 05:20:29;;;;;;;7.23;5.17;;;-2.10;96.30;;;;;;4997331;28;20469;-75
2021/01/25 05:22:56;;;;;;;7.20;5.90;;;-2.10;96.30;;;;;;4995524;28;20413;-75
2021/01/25 05:25:30;;;;;;;7.33;6.03;;;-2.10;96.30;;;;;;4996058;28;20409;-74
2021/01/25 05:28:00;;;;;;;8.30;5.30;;;-2.00;96.30;;;;;;4979051;28;20870;-74
2021/01/25 05:30:27;;;;;;;6.53;4.80;;;-2.00;96.30;;;;;;4996153;28;20419;-74
2021/01/25 05:32:55;;;;;;;5.27;4.33;;;-2.00;96.30;;;;;;4995498;28;20901;-74
2021/01/25 05:35:26;;;;;;;7.97;5.20;;;-2.10;96.30;;;;;;4995305;28;20479;-74
2021/01/25 05:37:56;;;;;;;5.80;4.90;;;-2.00;96.30;;;;;;4977180;28;20418;-74
2021/01/25 05:40:23;;;;;;;6.60;5.30;;;-2.00;96.30;;;;;;4976596;28;20469;-74
2021/01/25 05:42:50;;;;;;;7.70;5.00;;;-2.10;96.30;;;;;;4976976;28;20482;-74
2021/01/25 05:45:16;;;;;;;7.07;5.20;;;-2.10;96.30;;;;;;4958334;28;20913;-75
2021/01/25 05:47:47;;;;;;;5.40;4.57;;;-2.10;96.30;;;;;;4976874;28;20421;-74
2021/01/25 05:50:35;;;;;;;8.07;5.47;;;-2.10;96.30;;;;;;4958517;28;20413;-74
2021/01/25 05:53:03;;;;;;;6.70;4.40;;;-2.10;96.30;;;;;;4984601;28;20424;-75
2021/01/25 05:55:29;;;;;;;6.80;4.27;;;-2.10;96.30;;;;;;4990887;28;20445;-75
2021/01/25 05:57:55;;;;;;;4.90;4.33;;;-2.10;96.30;;;;;;4985845;28;20414;-75
2021/01/25 06:00:21;;;;;;;8.70;6.27;;;-2.10;96.30;;;;;;4958570;28;20468;-74
2021/01/25 06:02:49;;;;;;;8.10;5.37;;;-2.10;96.30;;;;;;4976229;28;20309;-74
2021/01/25 06:05:28;;;;;;;6.17;5.13;;;-2.10;96.30;;;;;;4975958;28;20816;-75
2021/01/25 06:08:02;;;;;;;7.27;4.37;;;-2.10;96.30;;;;;;4958929;28;20421;-75
2021/01/25 06:10:41;;;;;;;7.33;5.07;;;-2.10;96.30;;;;;;4978498;28;20487;-75
2021/01/25 06:13:13;;;;;;;5.90;4.80;;;-2.10;96.30;;;;;;4965929;28;20424;-75
2021/01/25 06:15:40;;;;;;;6.40;5.20;;;-2.10;96.30;;;;;;4994840;28;20413;-75
2021/01/25 06:18:06;;;;;;;5.93;4.50;;;-2.20;96.30;;;;;;4996356;28;20419;-74
2021/01/25 06:20:33;;;;;;;8.30;5.60;;;-2.20;96.30;;;;;;4977784;28;20547;-75
2021/01/25 06:22:59;;;;;;;8.67;5.30;;;-2.20;96.30;;;;;;4995029;28;20667;-75
2021/01/25 06:25:25;;;;;;;6.83;4.77;;;-2.20;96.30;;;;;;4995612;28;20412;-76
2021/01/25 06:27:55;;;;;;;5.90;4.83;;;-2.10;96.30;;;;;;4980454;28;20416;-75
2021/01/25 06:30:24;;;;;;;8.37;4.50;;;-2.10;96.30;;;;;;4967975;28;20501;-75
2021/01/25 06:32:51;;;;;;;6.70;5.77;;;-2.10;96.30;;;;;;4959251;28;20425;-75
2021/01/25 06:35:17;;;;;;;8.50;7.00;;;-2.10;96.30;;;;;;4958581;28;20488;-75
2021/01/25 06:37:51;;;;;;;9.83;5.87;;;-2.10;96.30;;;;;;4975627;28;20416;-74
2021/01/25 06:40:23;;;;;;;9.37;6.30;;;-2.10;96.30;;;;;;4959655;28;20457;-75
2021/01/25 06:42:49;;;;;;;11.57;7.63;;;-2.10;96.30;;;;;;4965913;28;20414;-77
2021/01/25 06:45:15;;;;;;;18.10;11.60;;;-2.10;96.30;;;;;;4981549;28;20444;-76
2021/01/25 06:47:41;;;;;;;14.27;9.70;;;-2.10;96.30;;;;;;4964546;28;20418;-76
2021/01/25 06:50:07;;;;;;;17.20;11.60;;;-2.30;96.30;;;;;;4961838;29;20418;-76
2021/01/25 06:52:38;;;;;;;9.07;6.97;;;-2.40;96.30;;;;;;4948062;29;20291;-75
2021/01/25 06:55:08;;;;;;;7.80;5.90;;;-2.40;96.30;;;;;;4946369;29;20558;-75
2021/01/25 06:57:36;;;;;;;8.83;5.60;;;-2.50;96.30;;;;;;4964309;29;20429;-76
2021/01/25 07:00:08;;;;;;;12.00;6.17;;;-2.50;96.30;;;;;;4963373;29;20466;-75
2021/01/25 07:02:34;;;;;;;6.93;5.80;;;-2.60;96.30;;;;;;4944671;29;20463;-75
2021/01/25 07:04:59;;;;;;;7.60;5.93;;;-2.70;96.30;;;;;;4942661;29;20423;-75
2021/01/25 07:07:30;;;;;;;6.10;5.07;;;-2.80;96.30;;;;;;4961184;29;20183;-76
2021/01/25 07:09:57;;;;;;;6.90;5.77;;;-2.90;96.30;;;;;;4964593;28;20187;-74
2021/01/25 07:12:24;;;;;;;7.73;6.13;;;-2.90;96.30;;;;;;4992872;28;20445;-76
2021/01/25 07:14:51;;;;;;;13.93;7.30;;;-2.80;96.30;;;;;;4979507;28;20909;-76
2021/01/25 07:17:16;;;;;;;9.23;5.30;;;-2.70;96.30;;;;;;4976722;28;20924;-75
2021/01/25 07:19:43;;;;;;;86.30;52.90;;;-2.60;96.30;;;;;;4979393;28;20465;-76
2021/01/25 07:22:09;;;;;;;63.03;40.87;;;-2.40;96.30;;;;;;4961002;28;20194;-75
2021/01/25 07:24:37;;;;;;;21.60;16.70;;;-2.30;96.30;;;;;;4976844;28;20418;-76
2021/01/25 07:27:04;;;;;;;11.83;8.87;;;-2.20;96.30;;;;;;4973855;28;20422;-76
2021/01/25 07:29:30;;;;;;;8.83;7.10;;;-2.00;96.30;;;;;;4960210;29;20435;-76
2021/01/25 07:31:57;;;;;;;9.87;7.10;;;-1.90;96.30;;;;;;4972163;28;20509;-76
2021/01/25 07:34:26;;;;;;;11.07;7.83;;;-1.90;96.30;;;;;;5000056;28;20416;-76
2021/01/25 07:36:52;;;;;;;9.53;7.83;;;-1.90;96.30;;;;;;4997879;28;20405;-76
2021/01/25 07:39:19;;;;;;;9.50;7.27;;;-1.80;96.30;;;;;;4961811;28;20485;-76
2021/01/25 07:41:45;;;;;;;10.30;7.23;;;-1.80;96.30;;;;;;4959506;29;20949;-76
2021/01/25 07:44:12;;;;;;;11.50;7.70;;;-1.80;96.30;;;;;;4962404;28;20811;-76
2021/01/25 07:46:39;;;;;;;7.87;6.57;;;-1.80;96.30;;;;;;4953337;28;20436;-76
2021/01/25 07:49:05;;;;;;;8.10;5.70;;;-1.90;96.30;;;;;;4970244;28;20430;-76
2021/01/25 07:51:33;;;;;;;7.53;5.77;;;-1.90;96.30;;;;;;4971159;28;20859;-76
2021/01/25 07:53:59;;;;;;;8.80;5.30;;;-2.10;96.30;;;;;;4976682;28;20167;-76
2021/01/25 07:56:26;;;;;;;8.30;5.07;;;-2.20;96.30;;;;;;4947999;28;20529;-76
2021/01/25 07:59:09;;;;;;;5.50;4.90;;;-2.70;96.30;;;;;;4967274;28;20516;-75
2021/01/25 08:01:48;;;;;;;8.37;5.30;;;-3.30;96.30;;;;;;4971306;28;20509;-76
2021/01/25 08:04:21;;;;;;;7.77;5.77;;;-3.30;96.30;;;;;;4982149;28;20401;-76
2021/01/25 08:06:47;;;;;;;6.97;4.97;;;-3.20;96.30;;;;;;4969425;28;20421;-76
2021/01/25 08:09:18;;;;;;;8.40;5.27;;;-3.00;96.30;;;;;;4971269;28;20422;-76
2021/01/25 08:11:44;;;;;;;6.30;4.70;;;-2.80;96.30;;;;;;4971674;28;20438;-76
2021/01/25 08:14:22;;;;;;;6.10;4.67;;;-2.70;96.30;;;;;;4993130;28;20427;-77
2021/01/25 08:16:56;;;;;;;6.50;5.00;;;-2.40;96.30;;;;;;5011869;28;20436;-77
2021/01/25 08:19:36;;;;;;;6.50;4.20;;;-2.00;96.30;;;;;;5007177;28;20492;-77
2021/01/25 08:22:21;;;;;;;8.20;6.30;;;-1.70;96.30;;;;;;4992361;28;20444;-77
2021/01/25 08:24:57;;;;;;;7.30;5.17;;;-1.30;96.30;;;;;;4994009;28;20398;-77
2021/01/25 08:27:24;;;;;;;8.53;6.23;;;-1.00;96.30;;;;;;4993750;28;20428;-75
2021/01/25 08:30:11;;;;;;;6.83;5.60;;;-1.00;96.30;;;;;;4991084;28;20497;-74
2021/01/25 08:32:47;;;;;;;6.83;6.07;;;-0.90;96.30;;;;;;4975812;28;20481;-74
2021/01/25 08:35:14;;;;;;;8.20;5.50;;;-0.80;96.30;;;;;;4974291;28;20476;-74
2021/01/25 08:37:39;;;;;;;10.13;8.00;;;-0.90;96.30;;;;;;4992009;28;20390;-74
2021/01/25 08:40:22;;;;;;;9.90;7.67;;;-0.80;96.30;;;;;;4994541;28;20457;-74
2021/01/25 08:42:49;;;;;;;10.70;6.47;;;-0.60;96.30;;;;;;4993634;28;20170;-74
2021/01/25 08:45:26;;;;;;;8.57;6.73;;;-0.50;96.30;;;;;;4991568;28;20432;-76
2021/01/25 08:48:05;;;;;;;8.10;6.07;;;-0.50;96.30;;;;;;4989239;28;20425;-76
2021/01/25 08:50:30;;;;;;;6.60;5.10;;;-0.30;96.30;;;;;;4982564;28;20501;-76
2021/01/25 08:53:02;;;;;;;10.00;5.13;;;-0.10;96.30;;;;;;4962589;29;20431;-76
2021/01/25 08:55:42;;;;;;;6.53;4.60;;;-0.10;96.30;;;;;;4968948;28;20174;-76
2021/01/25 08:58:15;;;;;;;7.27;4.70;;;0.00;96.30;;;;;;4975581;28;20414;-76
2021/01/25 09:00:42;;;;;;;7.20;4.87;;;0.10;96.30;;;;;;4967187;28;20535;-75
2021/01/25 09:03:11;;;;;;;7.10;3.93;;;-0.20;96.30;;;;;;4985310;28;20406;-76
2021/01/25 09:05:37;;;;;;;4.83;3.87;;;-0.30;96.30;;;;;;4986969;28;20476;-75
2021/01/25 09:08:02;;;;;;;8.60;4.97;;;-0.30;96.30;;;;;;4986769;28;20849;-76
2021/01/25 09:10:28;;;;;;;8.60;5.07;;;-0.20;96.30;;;;;;5003471;28;20184;-75
2021/01/25 09:12:54;;;;;;;6.63;4.50;;;-0.20;96.30;;;;;;5012464;28;20186;-76
2021/01/25 09:15:20;;;;;;;4.73;4.03;;;-0.10;96.30;;;;;;4982130;28;20615;-75
2021/01/25 09:17:45;;;;;;;6.40;4.60;;;-0.10;96.30;;;;;;4958356;29;20183;-76
2021/01/25 09:20:11;;;;;;;5.97;4.67;;;0.00;96.30;;;;;;4978569;28;20473;-75
2021/01/25 09:22:37;;;;;;;5.50;4.43;;;0.40;96.30;;;;;;4984267;28;20189;-75
2021/01/25 09:25:05;;;;;;;8.10;4.87;;;0.70;96.30;;;;;;4956695;29;20450;-77
2021/01/25 09:27:31;;;;;;;5.73;5.10;;;0.70;96.30;;;;;;4966911;28;20413;-76
2021/01/25 09:29:56;;;;;;;6.17;4.67;;;0.80;96.30;;;;;;4980614;28;20450;-75
2021/01/25 09:32:22;;;;;;;5.70;4.63;;;1.00;96.30;;;;;;4967688;29;20203;-76
2021/01/25 09:34:48;;;;;;;6.60;5.70;;;1.10;96.30;;;;;;4967399;28;20194;-75
2021/01/25 09:37:14;;;;;;;4.83;4.20;;;1.10;96.30;;;;;;4973310;28;20174;-75
2021/01/25 09:39:40;;;;;;;4.73;4.17;;;0.90;96.30;;;;;;4973275;28;20252;-75
2021/01/25 09:42:06;;;;;;;8.20;4.33;;;0.90;96.30;;;;;;4964370;28;20442;-75
2021/01/25 09:44:35;;;;;;;6.17;4.30;;;1.20;96.30;;;;;;4983624;28;20205;-75
2021/01/25 09:47:01;;;;;;;8.53;4.00;;;1.20;96.30;;;;;;4965538;28;20418;-75
2021/01/25 09:49:26;;;;;;;5.13;4.20;;;1.20;96.30;;;;;;4997839;28;20423;-75
2021/01/25 09:51:52;;;;;;;6.73;4.03;;;1.20;96.30;;;;;;5000614;28;20445;-75
2021/01/25 09:54:17;;;;;;;3.90;3.50;;;1.00;96.30;;;;;;4983503;28;20178;-76
2021/01/25 09:56:43;;;;;;;5.47;4.13;;;1.30;96.30;;;;;;4970028;28;20263;-74
2021/01/25 09:59:09;;;;;;;5.90;4.60;;;1.50;96.30;;;;;;4964257;28;20195;-76
2021/01/25 10:01:34;;;;;;;10.10;6.90;;;1.30;96.30;;;;;;4972711;28;20449;-75
2021/01/25 10:04:00;;;;;;;11.60;8.23;;;1.60;96.30;;;;;;4984328;28;20639;-75
2021/01/25 10:06:29;;;;;;;8.87;6.10;;;1.70;96.30;;;;;;4984748;28;20182;-75
2021/01/25 10:08:55;;;;;;;11.50;8.00;;;1.90;96.30;;;;;;4986018;28;20216;-75
2021/01/25 10:11:23;;;;;;;9.20;6.93;;;1.80;96.30;;;;;;4988737;28;20446;-75
2021/01/25 10:13:48;;;;;;;9.57;6.60;;;2.10;96.30;;;;;;4984025;28;20425;-75
2021/01/25 10:16:14;;;;;;;9.10;5.60;;;2.10;96.30;;;;;;4986430;28;20415;-75
2021/01/25 10:18:39;;;;;;;10.20;6.47;;;2.50;96.00;;;;;;4989261;28;20654;-75
2021/01/25 10:21:05;;;;;;;6.43;5.50;;;2.90;95.80;;;;;;4985170;28;20284;-75
2021/01/25 10:23:31;;;;;;;6.50;5.30;;;3.20;92.60;;;;;;4987257;28;20178;-75
2021/01/25 10:25:56;;;;;;;9.37;6.67;;;3.50;93.60;;;;;;4966961;28;20579;-75
2021/01/25 10:28:22;;;;;;;5.80;4.20;;;4.10;91.00;;;;;;4987903;28;20190;-75
2021/01/25 10:30:48;;;;;;;6.23;4.43;;;4.60;88.90;;;;;;4970014;28;20201;-75
2021/01/25 10:33:14;;;;;;;7.37;4.97;;;5.00;87.40;;;;;;4987699;28;20170;-75
2021/01/25 10:35:40;;;;;;;6.27;5.10;;;4.90;86.60;;;;;;4971076;28;20428;-75
2021/01/25 10:38:06;;;;;;;8.33;4.63;;;4.70;87.50;;;;;;4981913;28;20417;-75
2021/01/25 10:40:31;;;;;;;7.50;4.67;;;4.80;87.90;;;;;;4966764;28;20468;-76
2021/01/25 10:42:57;;;;;;;5.43;4.83;;;5.30;87.80;;;;;;4985880;28;20633;-75
2021/01/25 10:45:23;;;;;;;7.63;4.70;;;5.40;83.90;;;;;;4986672;28;20221;-75
2021/01/25 10:47:49;;;;;;;6.40;4.13;;;3.60;86.60;;;;;;4965989;28;20213;-75
2021/01/25 10:50:16;;;;;;;13.20;7.70;;;3.40;90.50;;;;;;4984787;28;20441;-75
2021/01/25 10:52:43;;;;;;;7.00;5.10;;;3.90;89.80;;;;;;4983637;28;20189;-75
2021/01/25 10:55:09;;;;;;;6.23;4.37;;;4.50;88.50;;;;;;4968705;28;20479;-75
2021/01/25 10:57:35;;;;;;;5.60;3.73;;;4.60;86.70;;;;;;4983735;28;20512;-74
2021/01/25 11:00:06;;;;;;;8.97;5.50;;;4.70;85.50;;;;;;4982554;28;20480;-74
2021/01/25 11:02:31;;;;;;;6.77;4.60;;;4.70;85.70;;;;;;4981113;28;20248;-74
2021/01/25 11:04:56;;;;;;;5.10;3.97;;;4.50;87.50;;;;;;4978913;28;20441;-74
2021/01/25 11:07:22;;;;;;;29.33;10.30;;;4.40;88.30;;;;;;4951175;29;20670;-74
2021/01/25 11:09:47;;;;;;;5.77;4.73;;;4.10;89.70;;;;;;4968420;28;20249;-73
2021/01/25 11:12:13;;;;;;;10.80;5.80;;;4.60;89.80;;;;;;4973409;28;20202;-73
2021/01/25 11:14:39;;;;;;;5.17;3.90;;;5.70;86.50;;;;;;4954534;29;20229;-73
2021/01/25 11:17:04;;;;;;;6.27;3.80;;;5.50;86.70;;;;;;4954284;29;20195;-75
2021/01/25 11:19:29;;;;;;;3.47;3.17;;;5.40;84.60;;;;;;4954295;29;20246;-73
2021/01/25 11:21:55;;;;;;;5.30;3.23;;;5.00;86.00;;;;;;4937602;29;20790;-73
2021/01/25 11:24:21;;;;;;;4.13;3.27;;;4.50;86.20;;;;;;4954900;29;20175;-73
2021/01/25 11:26:46;;;;;;;3.70;3.10;;;4.40;86.70;;;;;;4954839;28;20202;-74
2021/01/25 11:29:15;;;;;;;6.10;4.03;;;4.40;88.00;;;;;;4955280;29;20186;-72
2021/01/25 11:31:40;;;;;;;4.83;3.60;;;4.00;89.20;;;;;;4972706;28;20202;-72
2021/01/25 11:34:05;;;;;;;4.50;3.87;;;3.90;89.50;;;;;;4945555;29;20428;-73
2021/01/25 11:36:31;;;;;;;4.33;3.17;;;3.50;91.10;;;;;;4958276;29;20249;-73
2021/01/25 11:38:56;;;;;;;3.97;3.00;;;3.20;92.60;;;;;;4961665;28;20212;-72
2021/01/25 11:41:22;;;;;;;6.73;3.43;;;3.60;91.10;;;;;;4968222;28;20273;-72
2021/01/25 11:43:48;;;;;;;3.73;2.60;;;4.60;88.80;;;;;;4961338;28;20174;-72
2021/01/25 11:46:14;;;;;;;4.40;3.03;;;4.90;86.10;;;;;;4962364;28;20202;-73
2021/01/25 11:48:39;;;;;;;4.27;3.23;;;4.40;86.50;;;;;;4970702;28;20246;-73
2021/01/25 11:51:05;;;;;;;4.77;3.43;;;4.70;88.20;;;;;;4969183;28;20441;-72
2021/01/25 11:53:31;;;;;;;4.50;3.80;;;4.80;87.10;;;;;;4967171;28;20166;-72
2021/01/25 11:55:57;;;;;;;7.03;3.57;;;4.20;87.70;;;;;;4974387;28;20238;-73
2021/01/25 11:58:23;;;;;;;4.57;3.37;;;3.30;90.50;;;;;;4971171;28;20406;-72
2021/01/25 12:00:48;;;;;;;5.80;3.20;;;3.40;91.10;;;;;;4956693;29;20458;-72
2021/01/25 12:03:14;;;;;;;7.50;3.87;;;2.90;94.00;;;;;;4959444;28;20194;-73
2021/01/25 12:05:39;;;;;;;6.73;4.60;;;2.70;95.70;;;;;;4962029;28;20179;-73
2021/01/25 12:08:05;;;;;;;5.13;4.17;;;2.80;95.70;;;;;;4958312;29;20193;-72
2021/01/25 12:10:33;;;;;;;8.17;4.60;;;3.10;95.30;;;;;;4964112;28;20174;-72
2021/01/25 12:12:58;;;;;;;6.07;4.60;;;2.70;96.20;;;;;;4977048;28;20201;-73
2021/01/25 12:15:24;;;;;;;6.20;4.60;;;2.70;96.30;;;;;;4976429;28;20491;-72
2021/01/25 12:17:49;;;;;;;7.43;5.07;;;2.50;96.30;;;;;;4977358;28;20269;-72
2021/01/25 12:20:18;;;;;;;8.70;5.57;;;2.60;96.30;;;;;;4942106;28;20203;-72
2021/01/25 12:22:47;;;;;;;6.33;5.10;;;2.80;96.10;;;;;;4958227;28;20175;-74
2021/01/25 12:25:14;;;;;;;7.43;5.30;;;2.60;96.30;;;;;;4975477;28;20508;-73
2021/01/25 12:27:39;;;;;;;10.93;5.40;;;3.10;96.30;;;;;;4977815;28;20158;-74
2021/01/25 12:30:06;;;;;;;5.50;4.67;;;3.30;94.80;;;;;;4977904;28;20417;-74
2021/01/25 12:32:33;;;;;;;6.77;5.00;;;3.00;95.60;;;;;;4977498;28;20696;-74
2021/01/25 12:34:58;;;;;;;8.67;5.13;;;2.90;95.10;;;;;;4956395;28;20938;-74
2021/01/25 12:37:24;;;;;;;5.30;4.40;;;2.60;96.30;;;;;;4968562;28;20401;-74
2021/01/25 12:39:49;;;;;;;6.50;5.20;;;2.90;95.80;;;;;;4967708;28;20289;-74
2021/01/25 12:42:15;;;;;;;7.03;5.10;;;3.10;95.60;;;;;;4969074;28;20249;-74
2021/01/25 12:44:41;;;;;;;5.77;4.70;;;3.30;94.40;;;;;;4975421;28;20193;-74
2021/01/25 12:47:07;;;;;;;6.30;4.80;;;2.90;95.30;;;;;;4958452;28;20206;-74
2021/01/25 12:49:33;;;;;;;6.77;5.17;;;2.20;96.30;;;;;;4975443;28;20799;-74
2021/01/25 12:51:58;;;;;;;7.50;5.30;;;2.60;96.30;;;;;;4976405;28;20222;-74
2021/01/25 12:54:24;;;;;;;8.33;5.57;;;2.50;96.30;;;;;;4976508;28;20654;-73
2021/01/25 12:56:49;;;;;;;6.93;5.20;;;2.90;96.30;;;;;;4972646;28;20183;-74
2021/01/25 12:59:16;;;;;;;6.87;5.30;;;2.30;96.30;;;;;;4957481;29;20233;-74
2021/01/25 13:01:42;;;;;;;10.63;5.23;;;2.30;96.30;;;;;;4965345;28;20214;-74
2021/01/25 13:04:08;;;;;;;8.80;5.57;;;2.80;96.30;;;;;;4965859;28;20467;-73
2021/01/25 13:06:33;;;;;;;18.03;7.60;;;2.80;96.30;;;;;;4970397;28;20178;-73
2021/01/25 13:08:59;;;;;;;6.90;6.00;;;2.50;96.30;;;;;;4974985;28;20182;-72
2021/01/25 13:11:24;;;;;;;6.97;5.27;;;2.20;96.30;;;;;;4969834;28;20302;-73
2021/01/25 13:13:50;;;;;;;6.47;4.60;;;2.40;96.30;;;;;;4976592;28;20277;-73
2021/01/25 13:16:15;;;;;;;8.40;5.77;;;2.10;96.30;;;;;;4995805;28;20182;-73
2021/01/25 13:18:41;;;;;;;6.77;5.27;;;1.80;96.30;;;;;;4953360;28;20262;-73
2021/01/25 13:21:07;;;;;;;7.43;5.63;;;1.40;96.30;;;;;;4967376;28;20222;-73
2021/01/25 13:23:32;;;;;;;6.53;4.83;;;1.50;96.30;;;;;;4977830;28;20246;-73
2021/01/25 13:25:58;;;;;;;7.10;5.37;;;1.70;96.30;;;;;;4969484;28;20434;-73
2021/01/25 13:28:24;;;;;;;8.47;5.00;;;1.50;96.30;;;;;;4972780;28;20178;-73
2021/01/25 13:30:50;;;;;;;6.37;4.63;;;1.20;96.30;;;;;;4953062;29;20619;-73
2021/01/25 13:33:15;;;;;;;6.67;5.10;;;1.20;96.30;;;;;;4953259;28;20650;-73
2021/01/25 13:35:41;;;;;;;7.00;5.27;;;1.10;96.30;;;;;;4970557;28;20174;-73
2021/01/25 13:38:06;;;;;;;5.83;4.40;;;1.30;96.30;;;;;;4967635;28;20182;-73
2021/01/25 13:40:32;;;;;;;5.40;4.40;;;1.00;96.30;;;;;;4970081;28;20277;-73
2021/01/25 13:42:58;;;;;;;4.90;3.73;;;1.10;96.30;;;;;;4956518;28;20178;-74
2021/01/25 13:45:29;;;;;;;6.13;3.73;;;1.10;96.30;;;;;;4940589;29;20238;-74
2021/01/25 13:47:55;;;;;;;6.77;4.33;;;1.10;96.30;;;;;;4965245;29;20507;-73
2021/01/25 13:50:20;;;;;;;6.33;4.73;;;1.10;96.30;;;;;;4967496;28;20463;-73
2021/01/25 13:52:46;;;;;;;10.33;4.97;;;0.80;96.30;;;;;;4956995;28;20641;-74
2021/01/25 13:55:13;;;;;;;12.13;4.87;;;0.70;96.30;;;;;;4951413;29;20189;-73
2021/01/25 13:57:39;;;;;;;6.93;4.63;;;0.80;96.30;;;;;;4958958;28;20927;-74
2021/01/25 14:00:11;;;;;;;6.33;4.40;;;0.80;96.30;;;;;;4955648;28;20526;-74
2021/01/25 14:02:38;;;;;;;7.17;4.20;;;1.10;96.30;;;;;;4956682;28;20218;-74
2021/01/25 14:05:07;;;;;;;8.47;4.70;;;1.30;96.30;;;;;;4958894;28;20815;-73
2021/01/25 14:07:33;;;;;;;5.30;4.80;;;1.20;96.30;;;;;;4968056;28;20450;-73
2021/01/25 14:09:58;;;;;;;5.80;4.30;;;1.50;96.30;;;;;;4965700;28;20529;-73
2021/01/25 14:12:24;;;;;;;5.97;4.70;;;1.60;96.30;;;;;;4994536;28;20226;-73
2021/01/25 14:14:50;;;;;;;4.60;3.77;;;1.50;96.30;;;;;;4962283;28;20179;-73
2021/01/25 14:17:21;;;;;;;6.20;3.80;;;1.30;96.30;;;;;;5116026;27;20558;-72
2021/01/25 14:19:49;;;;;;;5.23;3.33;;;1.30;96.30;;;;;;5114894;28;20403;-72
2021/01/25 14:22:14;;;;;;;3.97;3.43;;;0.90;96.30;;;;;;5115058;28;20190;-72
2021/01/25 14:24:40;;;;;;;7.23;3.90;;;0.60;96.30;;;;;;5117209;28;20932;-72
2021/01/25 14:27:07;;;;;;;4.10;3.53;;;0.40;96.30;;;;;;5116891;28;20671;-72
2021/01/25 14:29:33;;;;;;;5.50;4.33;;;0.40;96.30;;;;;;5116351;28;20181;-72
2021/01/25 14:31:59;;;;;;;4.27;3.70;;;0.30;96.30;;;;;;5118960;28;20423;-72
2021/01/25 14:34:24;;;;;;;3.87;2.83;;;0.20;96.30;;;;;;5120005;28;20491;-72
2021/01/25 14:36:50;;;;;;;3.30;2.60;;;0.30;96.30;;;;;;5114994;28;20228;-72
2021/01/25 14:39:15;;;;;;;3.07;2.73;;;0.10;96.30;;;;;;5107548;28;20178;-72
2021/01/25 14:41:41;;;;;;;4.10;3.23;;;0.00;96.30;;;;;;5100917;28;20581;-72
2021/01/25 14:44:07;;;;;;;3.50;3.03;;;-0.30;96.30;;;;;;5095405;28;20210;-72
2021/01/25 14:46:32;;;;;;;4.10;2.77;;;-0.40;96.30;;;;;;5093799;28;20420;-72
2021/01/25 14:48:58;;;;;;;4.00;2.80;;;-0.40;96.30;;;;;;5091931;28;20200;-73
2021/01/25 14:51:24;;;;;;;4.00;2.27;;;-0.50;96.30;;;;;;5089206;28;20335;-73
2021/01/25 14:53:51;;;;;;;3.90;2.40;;;-0.50;96.30;;;;;;5090088;28;20190;-72
2021/01/25 14:56:17;;;;;;;3.40;3.07;;;-0.60;96.30;;;;;;5089097;28;20464;-73
2021/01/25 14:58:43;;;;;;;4.73;2.70;;;-0.60;96.30;;;;;;5088847;28;21015;-72
2021/01/25 15:01:09;;;;;;;4.93;3.20;;;-0.70;96.30;;;;;;5089498;28;20538;-72
2021/01/25 15:03:34;;;;;;;4.30;3.90;;;-0.80;96.30;;;;;;5088868;28;20186;-73
2021/01/25 15:06:00;;;;;;;5.50;4.23;;;-0.80;96.30;;;;;;5100620;28;20181;-73
2021/01/25 15:08:25;;;;;;;4.67;4.20;;;-0.80;96.30;;;;;;5109526;28;20177;-73
2021/01/25 15:10:50;;;;;;;10.13;6.37;;;-0.80;96.30;;;;;;5120570;28;20247;-73
2021/01/25 15:13:16;;;;;;;5.33;4.60;;;-0.90;96.30;;;;;;5117834;28;20203;-73
2021/01/25 15:15:41;;;;;;;7.67;4.60;;;-1.10;96.30;;;;;;5111219;28;20274;-73
2021/01/25 15:18:07;;;;;;;4.43;4.03;;;-1.30;96.30;;;;;;5112400;28;20174;-73
2021/01/25 15:20:33;;;;;;;4.70;4.20;;;-1.70;96.30;;;;;;5111095;28;20178;-73
2021/01/25 15:23:01;;;;;;;5.13;3.70;;;-1.80;96.30;;;;;;5108047;28;20181;-74
2021/01/25 15:25:28;;;;;;;4.93;4.43;;;-1.90;96.30;;;;;;5108082;28;20412;-74
2021/01/25 15:27:54;;;;;;;10.13;3.90;;;-1.90;96.30;;;;;;5099892;28;20410;-74
2021/01/25 15:30:20;;;;;;;7.00;4.40;;;-2.00;96.30;;;;;;5094510;28;20412;-74
2021/01/25 15:32:46;;;;;;;7.27;5.37;;;-2.10;96.30;;;;;;5094877;28;20412;-74
2021/01/25 15:35:13;;;;;;;6.00;4.90;;;-2.20;96.30;;;;;;5094372;28;20787;-74
2021/01/25 15:37:38;;;;;;;8.03;4.90;;;-2.10;96.30;;;;;;5095006;28;20544;-74
2021/01/25 15:40:05;;;;;;;5.60;4.73;;;-2.10;96.30;;;;;;5094984;28;20416;-74
2021/01/25 15:42:31;;;;;;;8.33;5.37;;;-2.20;96.30;;;;;;5094898;28;20216;-75
2021/01/25 15:44:56;;;;;;;8.60;5.97;;;-2.30;96.30;;;;;;5094674;28;20416;-74
2021/01/25 15:47:22;;;;;;;8.17;5.10;;;-2.30;96.30;;;;;;5094605;28;20258;-75
2021/01/25 15:49:47;;;;;;;14.67;5.73;;;-2.40;96.30;;;;;;5094727;28;20646;-74
2021/01/25 15:52:13;;;;;;;6.50;5.87;;;-2.60;96.30;;;;;;5093240;28;20235;-74
2021/01/25 15:54:39;;;;;;;18.40;12.20;;;-2.70;96.30;;;;;;5092187;28;20266;-74
2021/01/25 15:57:05;;;;;;;54.93;27.80;;;-2.70;96.30;;;;;;5088532;28;20888;-74
2021/01/25 15:59:31;;;;;;;50.93;24.30;;;-2.70;96.30;;;;;;5074378;28;20171;-74
2021/01/25 16:01:57;;;;;;;25.23;13.67;;;-2.70;96.30;;;;;;5074117;28;20420;-74
2021/01/25 16:04:24;;;;;;;27.00;12.87;;;-2.70;96.30;;;;;;5074131;28;20175;-74
2021/01/25 16:06:50;;;;;;;9.73;7.33;;;-2.70;96.30;;;;;;5073381;28;20409;-73
2021/01/25 16:09:16;;;;;;;12.93;5.87;;;-2.80;96.30;;;;;;5080418;28;20788;-74
2021/01/25 16:11:42;;;;;;;7.70;6.00;;;-2.80;96.30;;;;;;5094503;28;20428;-74
2021/01/25 16:14:07;;;;;;;7.53;5.90;;;-2.70;96.30;;;;;;5081406;28;20588;-73
2021/01/25 16:16:33;;;;;;;8.10;6.17;;;-2.70;96.30;;;;;;5102855;28;20202;-73
2021/01/25 16:19:01;;;;;;;9.83;7.13;;;-2.80;96.30;;;;;;5072049;28;20236;-74
2021/01/25 16:21:27;;;;;;;13.97;8.30;;;-2.80;96.30;;;;;;5073207;28;20183;-74
2021/01/25 16:23:52;;;;;;;13.47;7.20;;;-2.80;96.30;;;;;;5106475;28;20406;-75
2021/01/25 16:26:18;;;;;;;10.13;6.37;;;-2.80;96.30;;;;;;5074794;28;20634;-75
2021/01/25 16:28:43;;;;;;;9.00;5.73;;;-2.80;96.30;;;;;;5093975;28;20170;-75
2021/01/25 16:31:09;;;;;;;9.63;6.87;;;-2.80;96.30;;;;;;5084290;28;20284;-74
2021/01/25 16:33:34;;;;;;;11.23;7.30;;;-2.90;96.30;;;;;;5073620;28;20185;-75
2021/01/25 16:36:00;;;;;;;10.07;6.07;;;-2.90;96.30;;;;;;5072945;28;20278;-75
2021/01/25 16:38:25;;;;;;;9.70;6.30;;;-2.90;96.30;;;;;;5077162;28;20271;-75
2021/01/25 16:40:51;;;;;;;15.13;8.00;;;-2.80;96.30;;;;;;5093205;28;20248;-75
2021/01/25 16:43:20;;;;;;;10.23;7.43;;;-2.70;96.30;;;;;;5093633;28;20177;-75
2021/01/25 16:45:46;;;;;;;10.70;6.83;;;-2.60;96.30;;;;;;5093130;28;20408;-75
2021/01/25 16:48:14;;;;;;;12.07;7.30;;;-2.60;96.30;;;;;;5093585;28;20503;-75